sensor_id;sensor_type;location;lat;lon;timestamp;P1;durP1;ratioP1;P2;durP2;ratioP2
50309;SDS011;36207;51.850;21.698;2023-06-22T00:00:53;20.70;;;18.30;;
50309;SDS011;36207;51.850;21.698;2023-06-22T00:03:30;21.00;;;17.60;;
50309;SDS011;36207;51.850;21.698;2023-06-22T00:05:56;20.10;;;17.90;;
50309;SDS011;36207;51.850;21.698;2023-06-22T00:08:22;20.20;;;17.80;;
50309;SDS011;36207;51.850;21.698;2023-06-22T00:10:48;19.00;;;17.10;;
50309;SDS011;36207;51.850;21.698;2023-06-22T00:13:14;20.90;;;17.80;;
50309;SDS011;36207;51.850;21.698;2023-06-22T00:15:41;19.30;;;17.30;;
50309;SDS011;36207;51.850;21.698;2023-06-22T00:18:07;18.50;;;16.60;;
50309;SDS011;36207;51.850;21.698;2023-06-22T00:20:34;20.20;;;17.50;;
50309;SDS011;36207;51.850;21.698;2023-06-22T00:23:03;21.80;;;17.80;;
50309;SDS011;36207;51.850;21.698;2023-06-22T00:25:40;18.70;;;16.70;;
50309;SDS011;36207;51.850;21.698;2023-06-22T00:28:06;18.80;;;16.80;;
50309;SDS011;36207;51.850;21.698;2023-06-22T00:30:33;18.60;;;16.00;;
50309;SDS011;36207;51.850;21.698;2023-06-22T00:33:00;20.10;;;17.40;;
50309;SDS011;36207;51.850;21.698;2023-06-22T00:35:26;20.20;;;17.70;;
50309;SDS011;36207;51.850;21.698;2023-06-22T00:37:56;21.40;;;17.80;;
50309;SDS011;36207;51.850;21.698;2023-06-22T00:40:30;21.90;;;18.00;;
50309;SDS011;36207;51.850;21.698;2023-06-22T00:42:57;20.60;;;18.10;;
50309;SDS011;36207;51.850;21.698;2023-06-22T00:45:26;22.30;;;18.00;;
50309;SDS011;36207;51.850;21.698;2023-06-22T00:47:53;22.60;;;18.50;;
50309;SDS011;36207;51.850;21.698;2023-06-22T00:50:22;17.20;;;15.40;;
50309;SDS011;36207;51.850;21.698;2023-06-22T00:52:53;22.00;;;18.30;;
50309;SDS011;36207;51.850;21.698;2023-06-22T00:55:22;24.10;;;19.30;;
50309;SDS011;36207;51.850;21.698;2023-06-22T00:57:49;23.20;;;18.70;;
50309;SDS011;36207;51.850;21.698;2023-06-22T01:00:15;20.60;;;18.40;;
50309;SDS011;36207;51.850;21.698;2023-06-22T01:02:46;20.10;;;17.70;;
50309;SDS011;36207;51.850;21.698;2023-06-22T01:05:13;26.20;;;19.60;;
50309;SDS011;36207;51.850;21.698;2023-06-22T01:07:42;21.50;;;19.20;;
50309;SDS011;36207;51.850;21.698;2023-06-22T01:10:14;21.90;;;17.90;;
50309;SDS011;36207;51.850;21.698;2023-06-22T01:16:00;19.80;;;16.80;;
50309;SDS011;36207;51.850;21.698;2023-06-22T01:18:28;20.10;;;16.60;;
50309;SDS011;36207;51.850;21.698;2023-06-22T01:20:56;18.30;;;16.40;;
50309;SDS011;36207;51.850;21.698;2023-06-22T01:26:38;18.20;;;16.30;;
50309;SDS011;36207;51.850;21.698;2023-06-22T01:29:10;18.40;;;14.40;;
50309;SDS011;36207;51.850;21.698;2023-06-22T01:31:39;17.70;;;15.80;;
50309;SDS011;36207;51.850;21.698;2023-06-22T01:34:07;21.70;;;16.90;;
50309;SDS011;36207;51.850;21.698;2023-06-22T01:36:34;26.40;;;17.20;;
50309;SDS011;36207;51.850;21.698;2023-06-22T01:39:01;22.00;;;18.30;;
50309;SDS011;36207;51.850;21.698;2023-06-22T01:41:33;25.50;;;19.00;;
50309;SDS011;36207;51.850;21.698;2023-06-22T01:44:01;27.50;;;19.50;;
50309;SDS011;36207;51.850;21.698;2023-06-22T01:46:30;24.70;;;18.10;;
50309;SDS011;36207;51.850;21.698;2023-06-22T01:48:57;27.00;;;19.10;;
50309;SDS011;36207;51.850;21.698;2023-06-22T01:51:24;26.00;;;19.20;;
50309;SDS011;36207;51.850;21.698;2023-06-22T01:53:50;26.00;;;19.60;;
50309;SDS011;36207;51.850;21.698;2023-06-22T01:56:16;23.40;;;18.80;;
50309;SDS011;36207;51.850;21.698;2023-06-22T01:59:04;20.80;;;16.30;;
50309;SDS011;36207;51.850;21.698;2023-06-22T02:01:43;20.00;;;15.70;;
50309;SDS011;36207;51.850;21.698;2023-06-22T02:04:21;20.80;;;17.80;;
50309;SDS011;36207;51.850;21.698;2023-06-22T02:06:54;20.60;;;18.40;;
50309;SDS011;36207;51.850;21.698;2023-06-22T02:09:24;19.00;;;17.00;;
50309;SDS011;36207;51.850;21.698;2023-06-22T02:11:53;26.50;;;18.40;;
50309;SDS011;36207;51.850;21.698;2023-06-22T02:14:23;23.40;;;19.50;;
50309;SDS011;36207;51.850;21.698;2023-06-22T02:16:50;24.40;;;21.00;;
50309;SDS011;36207;51.850;21.698;2023-06-22T02:19:17;24.60;;;19.90;;
50309;SDS011;36207;51.850;21.698;2023-06-22T02:21:48;22.60;;;18.20;;
50309;SDS011;36207;51.850;21.698;2023-06-22T02:24:15;21.10;;;17.30;;
50309;SDS011;36207;51.850;21.698;2023-06-22T02:26:41;20.40;;;16.40;;
50309;SDS011;36207;51.850;21.698;2023-06-22T02:29:10;21.10;;;17.30;;
50309;SDS011;36207;51.850;21.698;2023-06-22T02:31:36;22.20;;;16.80;;
50309;SDS011;36207;51.850;21.698;2023-06-22T02:34:02;17.30;;;15.20;;
50309;SDS011;36207;51.850;21.698;2023-06-22T02:36:28;17.70;;;15.80;;
50309;SDS011;36207;51.850;21.698;2023-06-22T02:38:55;21.00;;;18.00;;
50309;SDS011;36207;51.850;21.698;2023-06-22T02:41:27;23.50;;;17.70;;
50309;SDS011;36207;51.850;21.698;2023-06-22T02:43:53;20.60;;;18.40;;
50309;SDS011;36207;51.850;21.698;2023-06-22T02:46:19;20.30;;;17.20;;
50309;SDS011;36207;51.850;21.698;2023-06-22T02:48:45;18.50;;;16.40;;
50309;SDS011;36207;51.850;21.698;2023-06-22T02:51:11;23.70;;;17.20;;
50309;SDS011;36207;51.850;21.698;2023-06-22T02:53:37;20.40;;;17.50;;
50309;SDS011;36207;51.850;21.698;2023-06-22T02:56:03;21.40;;;18.10;;
50309;SDS011;36207;51.850;21.698;2023-06-22T02:58:32;23.90;;;19.70;;
50309;SDS011;36207;51.850;21.698;2023-06-22T03:01:04;21.70;;;19.40;;
50309;SDS011;36207;51.850;21.698;2023-06-22T03:03:32;26.30;;;20.80;;
50309;SDS011;36207;51.850;21.698;2023-06-22T03:05:58;24.20;;;21.40;;
50309;SDS011;36207;51.850;21.698;2023-06-22T03:08:26;27.00;;;20.60;;
50309;SDS011;36207;51.850;21.698;2023-06-22T03:10:53;24.20;;;19.80;;
50309;SDS011;36207;51.850;21.698;2023-06-22T03:13:19;24.40;;;19.90;;
50309;SDS011;36207;51.850;21.698;2023-06-22T03:15:45;23.40;;;20.60;;
50309;SDS011;36207;51.850;21.698;2023-06-22T03:18:11;24.60;;;20.90;;
50309;SDS011;36207;51.850;21.698;2023-06-22T03:20:37;23.60;;;20.80;;
50309;SDS011;36207;51.850;21.698;2023-06-22T03:23:03;25.60;;;21.20;;
50309;SDS011;36207;51.850;21.698;2023-06-22T03:25:30;26.40;;;20.30;;
50309;SDS011;36207;51.850;21.698;2023-06-22T03:27:56;24.30;;;20.90;;
50309;SDS011;36207;51.850;21.698;2023-06-22T03:30:22;24.40;;;21.10;;
50309;SDS011;36207;51.850;21.698;2023-06-22T03:32:48;25.00;;;20.70;;
50309;SDS011;36207;51.850;21.698;2023-06-22T03:35:14;26.90;;;21.20;;
50309;SDS011;36207;51.850;21.698;2023-06-22T03:37:40;25.40;;;21.30;;
50309;SDS011;36207;51.850;21.698;2023-06-22T03:40:07;29.00;;;22.10;;
50309;SDS011;36207;51.850;21.698;2023-06-22T03:42:34;23.70;;;21.10;;
50309;SDS011;36207;51.850;21.698;2023-06-22T03:45:03;25.50;;;20.20;;
50309;SDS011;36207;51.850;21.698;2023-06-22T03:47:30;27.30;;;21.80;;
50309;SDS011;36207;51.850;21.698;2023-06-22T03:49:57;28.20;;;22.90;;
50309;SDS011;36207;51.850;21.698;2023-06-22T03:52:23;26.70;;;21.80;;
50309;SDS011;36207;51.850;21.698;2023-06-22T03:54:50;25.30;;;22.10;;
50309;SDS011;36207;51.850;21.698;2023-06-22T03:57:17;25.70;;;22.70;;
50309;SDS011;36207;51.850;21.698;2023-06-22T03:59:43;27.00;;;22.50;;
50309;SDS011;36207;51.850;21.698;2023-06-22T04:02:09;27.20;;;23.00;;
50309;SDS011;36207;51.850;21.698;2023-06-22T04:04:38;30.20;;;23.50;;
50309;SDS011;36207;51.850;21.698;2023-06-22T04:07:05;27.10;;;23.00;;
50309;SDS011;36207;51.850;21.698;2023-06-22T04:09:31;28.10;;;22.90;;
50309;SDS011;36207;51.850;21.698;2023-06-22T04:11:57;27.00;;;22.80;;
50309;SDS011;36207;51.850;21.698;2023-06-22T04:14:23;28.90;;;24.60;;
50309;SDS011;36207;51.850;21.698;2023-06-22T04:16:49;30.60;;;23.30;;
50309;SDS011;36207;51.850;21.698;2023-06-22T04:19:15;29.20;;;23.90;;
50309;SDS011;36207;51.850;21.698;2023-06-22T04:21:43;27.40;;;24.50;;
50309;SDS011;36207;51.850;21.698;2023-06-22T04:24:10;29.00;;;24.80;;
50309;SDS011;36207;51.850;21.698;2023-06-22T04:26:37;27.40;;;23.80;;
50309;SDS011;36207;51.850;21.698;2023-06-22T04:29:03;28.30;;;24.60;;
50309;SDS011;36207;51.850;21.698;2023-06-22T04:31:31;33.60;;;26.50;;
50309;SDS011;36207;51.850;21.698;2023-06-22T04:34:03;32.80;;;26.80;;
50309;SDS011;36207;51.850;21.698;2023-06-22T04:36:33;33.40;;;27.20;;
50309;SDS011;36207;51.850;21.698;2023-06-22T04:39:08;29.70;;;26.00;;
50309;SDS011;36207;51.850;21.698;2023-06-22T04:41:36;31.70;;;26.00;;
50309;SDS011;36207;51.850;21.698;2023-06-22T04:44:16;33.20;;;28.30;;
50309;SDS011;36207;51.850;21.698;2023-06-22T04:46:53;34.20;;;28.20;;
50309;SDS011;36207;51.850;21.698;2023-06-22T04:49:25;35.70;;;29.00;;
50309;SDS011;36207;51.850;21.698;2023-06-22T04:54:24;37.40;;;30.00;;
50309;SDS011;36207;51.850;21.698;2023-06-22T04:56:59;37.70;;;31.20;;
50309;SDS011;36207;51.850;21.698;2023-06-22T04:59:27;36.40;;;31.00;;
50309;SDS011;36207;51.850;21.698;2023-06-22T05:01:55;42.00;;;32.80;;
50309;SDS011;36207;51.850;21.698;2023-06-22T05:04:22;40.10;;;31.40;;
50309;SDS011;36207;51.850;21.698;2023-06-22T05:06:51;39.30;;;31.60;;
50309;SDS011;36207;51.850;21.698;2023-06-22T05:09:18;42.40;;;32.90;;
50309;SDS011;36207;51.850;21.698;2023-06-22T05:11:44;40.30;;;33.80;;
50309;SDS011;36207;51.850;21.698;2023-06-22T05:14:11;42.20;;;33.30;;
50309;SDS011;36207;51.850;21.698;2023-06-22T05:16:37;42.20;;;34.20;;
50309;SDS011;36207;51.850;21.698;2023-06-22T05:19:04;43.70;;;34.30;;
50309;SDS011;36207;51.850;21.698;2023-06-22T05:21:30;42.00;;;34.30;;
50309;SDS011;36207;51.850;21.698;2023-06-22T05:23:57;44.20;;;35.20;;
50309;SDS011;36207;51.850;21.698;2023-06-22T05:26:26;44.00;;;34.90;;
50309;SDS011;36207;51.850;21.698;2023-06-22T05:28:52;44.50;;;35.00;;
50309;SDS011;36207;51.850;21.698;2023-06-22T05:31:19;42.40;;;34.50;;
50309;SDS011;36207;51.850;21.698;2023-06-22T05:33:46;43.30;;;35.50;;
50309;SDS011;36207;51.850;21.698;2023-06-22T05:36:14;45.30;;;35.30;;
50309;SDS011;36207;51.850;21.698;2023-06-22T05:38:41;43.80;;;35.80;;
50309;SDS011;36207;51.850;21.698;2023-06-22T05:41:07;42.50;;;35.60;;
50309;SDS011;36207;51.850;21.698;2023-06-22T05:43:34;41.00;;;35.30;;
50309;SDS011;36207;51.850;21.698;2023-06-22T05:46:01;44.80;;;35.30;;
50309;SDS011;36207;51.850;21.698;2023-06-22T05:48:27;46.70;;;37.00;;
50309;SDS011;36207;51.850;21.698;2023-06-22T05:50:56;42.80;;;35.00;;
50309;SDS011;36207;51.850;21.698;2023-06-22T05:53:22;43.80;;;35.00;;
50309;SDS011;36207;51.850;21.698;2023-06-22T05:55:49;43.70;;;35.50;;
50309;SDS011;36207;51.850;21.698;2023-06-22T05:58:15;42.30;;;35.50;;
50309;SDS011;36207;51.850;21.698;2023-06-22T06:00:41;45.90;;;35.90;;
50309;SDS011;36207;51.850;21.698;2023-06-22T06:03:09;45.90;;;35.30;;
50309;SDS011;36207;51.850;21.698;2023-06-22T06:05:36;41.40;;;34.40;;
50309;SDS011;36207;51.850;21.698;2023-06-22T06:08:04;40.80;;;34.40;;
50309;SDS011;36207;51.850;21.698;2023-06-22T06:10:32;44.40;;;35.20;;
50309;SDS011;36207;51.850;21.698;2023-06-22T06:12:59;43.90;;;34.40;;
50309;SDS011;36207;51.850;21.698;2023-06-22T06:15:30;41.80;;;34.10;;
50309;SDS011;36207;51.850;21.698;2023-06-22T06:17:56;43.70;;;35.40;;
50309;SDS011;36207;51.850;21.698;2023-06-22T06:20:26;41.00;;;34.70;;
50309;SDS011;36207;51.850;21.698;2023-06-22T06:22:55;42.90;;;36.50;;
50309;SDS011;36207;51.850;21.698;2023-06-22T06:25:22;41.60;;;35.70;;
50309;SDS011;36207;51.850;21.698;2023-06-22T06:27:49;40.20;;;34.90;;
50309;SDS011;36207;51.850;21.698;2023-06-22T06:30:17;41.40;;;35.10;;
50309;SDS011;36207;51.850;21.698;2023-06-22T06:32:45;43.20;;;36.10;;
50309;SDS011;36207;51.850;21.698;2023-06-22T06:35:12;42.60;;;36.20;;
50309;SDS011;36207;51.850;21.698;2023-06-22T06:37:40;45.10;;;37.00;;
50309;SDS011;36207;51.850;21.698;2023-06-22T06:40:08;43.00;;;36.60;;
50309;SDS011;36207;51.850;21.698;2023-06-22T06:42:36;46.10;;;36.90;;
50309;SDS011;36207;51.850;21.698;2023-06-22T06:45:15;47.50;;;37.20;;
50309;SDS011;36207;51.850;21.698;2023-06-22T06:47:45;48.50;;;36.00;;
50309;SDS011;36207;51.850;21.698;2023-06-22T06:50:12;40.80;;;34.20;;
50309;SDS011;36207;51.850;21.698;2023-06-22T06:52:38;44.40;;;35.10;;
50309;SDS011;36207;51.850;21.698;2023-06-22T06:55:05;42.80;;;35.30;;
50309;SDS011;36207;51.850;21.698;2023-06-22T06:57:36;45.50;;;34.90;;
50309;SDS011;36207;51.850;21.698;2023-06-22T07:00:03;46.40;;;35.50;;
50309;SDS011;36207;51.850;21.698;2023-06-22T07:02:40;45.80;;;36.20;;
50309;SDS011;36207;51.850;21.698;2023-06-22T07:05:10;43.80;;;34.40;;
50309;SDS011;36207;51.850;21.698;2023-06-22T07:07:37;42.70;;;33.90;;
50309;SDS011;36207;51.850;21.698;2023-06-22T07:10:04;44.00;;;34.90;;
50309;SDS011;36207;51.850;21.698;2023-06-22T07:12:31;48.50;;;36.50;;
50309;SDS011;36207;51.850;21.698;2023-06-22T07:15:01;45.90;;;36.20;;
50309;SDS011;36207;51.850;21.698;2023-06-22T07:17:33;46.10;;;36.40;;
50309;SDS011;36207;51.850;21.698;2023-06-22T07:20:00;42.10;;;34.70;;
50309;SDS011;36207;51.850;21.698;2023-06-22T07:22:27;45.50;;;34.90;;
50309;SDS011;36207;51.850;21.698;2023-06-22T07:24:54;42.20;;;34.80;;
50309;SDS011;36207;51.850;21.698;2023-06-22T07:27:20;44.10;;;35.50;;
50309;SDS011;36207;51.850;21.698;2023-06-22T07:29:46;41.70;;;34.10;;
50309;SDS011;36207;51.850;21.698;2023-06-22T07:32:13;42.00;;;33.20;;
50309;SDS011;36207;51.850;21.698;2023-06-22T07:34:39;39.90;;;32.90;;
50309;SDS011;36207;51.850;21.698;2023-06-22T07:37:05;42.80;;;33.70;;
50309;SDS011;36207;51.850;21.698;2023-06-22T07:39:31;42.40;;;32.90;;
50309;SDS011;36207;51.850;21.698;2023-06-22T07:41:57;37.10;;;31.70;;
50309;SDS011;36207;51.850;21.698;2023-06-22T07:44:23;38.60;;;29.20;;
50309;SDS011;36207;51.850;21.698;2023-06-22T07:46:49;34.50;;;28.90;;
50309;SDS011;36207;51.850;21.698;2023-06-22T07:49:16;35.70;;;29.60;;
50309;SDS011;36207;51.850;21.698;2023-06-22T07:51:43;36.30;;;30.70;;
50309;SDS011;36207;51.850;21.698;2023-06-22T07:54:09;35.60;;;31.40;;
50309;SDS011;36207;51.850;21.698;2023-06-22T07:56:36;38.30;;;28.40;;
50309;SDS011;36207;51.850;21.698;2023-06-22T07:59:02;31.30;;;27.60;;
50309;SDS011;36207;51.850;21.698;2023-06-22T08:01:29;35.30;;;28.80;;
50309;SDS011;36207;51.850;21.698;2023-06-22T08:03:55;32.50;;;29.00;;
50309;SDS011;36207;51.850;21.698;2023-06-22T08:06:21;32.20;;;28.70;;
50309;SDS011;36207;51.850;21.698;2023-06-22T08:08:47;34.30;;;28.80;;
50309;SDS011;36207;51.850;21.698;2023-06-22T08:11:14;33.30;;;26.90;;
50309;SDS011;36207;51.850;21.698;2023-06-22T08:13:40;30.10;;;26.70;;
50309;SDS011;36207;51.850;21.698;2023-06-22T08:16:06;31.20;;;27.10;;
50309;SDS011;36207;51.850;21.698;2023-06-22T08:18:33;32.00;;;27.00;;
50309;SDS011;36207;51.850;21.698;2023-06-22T08:20:59;32.30;;;28.20;;
50309;SDS011;36207;51.850;21.698;2023-06-22T08:23:25;33.20;;;25.80;;
50309;SDS011;36207;51.850;21.698;2023-06-22T08:25:51;33.40;;;26.10;;
50309;SDS011;36207;51.850;21.698;2023-06-22T08:28:17;29.70;;;25.30;;
50309;SDS011;36207;51.850;21.698;2023-06-22T08:30:43;29.00;;;25.40;;
50309;SDS011;36207;51.850;21.698;2023-06-22T08:33:09;29.20;;;26.00;;
50309;SDS011;36207;51.850;21.698;2023-06-22T08:35:35;29.90;;;25.60;;
50309;SDS011;36207;51.850;21.698;2023-06-22T08:38:01;29.40;;;23.60;;
50309;SDS011;36207;51.850;21.698;2023-06-22T08:40:27;29.30;;;23.40;;
50309;SDS011;36207;51.850;21.698;2023-06-22T08:42:55;26.40;;;23.30;;
50309;SDS011;36207;51.850;21.698;2023-06-22T08:45:21;26.80;;;23.70;;
50309;SDS011;36207;51.850;21.698;2023-06-22T08:47:46;25.30;;;22.10;;
50309;SDS011;36207;51.850;21.698;2023-06-22T08:50:12;29.00;;;24.30;;
50309;SDS011;36207;51.850;21.698;2023-06-22T08:52:39;25.40;;;21.80;;
50309;SDS011;36207;51.850;21.698;2023-06-22T08:55:09;25.90;;;21.70;;
50309;SDS011;36207;51.850;21.698;2023-06-22T08:57:36;28.30;;;23.50;;
50309;SDS011;36207;51.850;21.698;2023-06-22T09:00:08;21.70;;;19.30;;
50309;SDS011;36207;51.850;21.698;2023-06-22T09:02:43;22.90;;;20.30;;
50309;SDS011;36207;51.850;21.698;2023-06-22T09:05:10;24.10;;;19.00;;
50309;SDS011;36207;51.850;21.698;2023-06-22T09:07:36;20.60;;;18.40;;
50309;SDS011;36207;51.850;21.698;2023-06-22T09:10:02;22.20;;;19.10;;
50309;SDS011;36207;51.850;21.698;2023-06-22T09:12:31;23.70;;;18.40;;
50309;SDS011;36207;51.850;21.698;2023-06-22T09:15:01;22.60;;;17.60;;
50309;SDS011;36207;51.850;21.698;2023-06-22T09:17:28;17.80;;;15.90;;
50309;SDS011;36207;51.850;21.698;2023-06-22T09:19:54;17.50;;;14.30;;
50309;SDS011;36207;51.850;21.698;2023-06-22T09:22:20;16.10;;;14.40;;
50309;SDS011;36207;51.850;21.698;2023-06-22T09:24:46;15.20;;;13.60;;
50309;SDS011;36207;51.850;21.698;2023-06-22T09:27:12;18.00;;;14.20;;
50309;SDS011;36207;51.850;21.698;2023-06-22T09:29:38;17.50;;;14.40;;
50309;SDS011;36207;51.850;21.698;2023-06-22T09:32:05;15.40;;;13.70;;
50309;SDS011;36207;51.850;21.698;2023-06-22T09:34:31;16.50;;;13.40;;
50309;SDS011;36207;51.850;21.698;2023-06-22T09:36:57;17.50;;;13.90;;
50309;SDS011;36207;51.850;21.698;2023-06-22T09:39:26;14.30;;;12.60;;
50309;SDS011;36207;51.850;21.698;2023-06-22T09:41:52;14.60;;;12.30;;
50309;SDS011;36207;51.850;21.698;2023-06-22T09:44:18;16.10;;;12.40;;
50309;SDS011;36207;51.850;21.698;2023-06-22T09:46:44;16.90;;;12.80;;
50309;SDS011;36207;51.850;21.698;2023-06-22T09:49:10;14.80;;;11.40;;
50309;SDS011;36207;51.850;21.698;2023-06-22T09:51:36;13.20;;;11.50;;
50309;SDS011;36207;51.850;21.698;2023-06-22T09:54:02;13.30;;;11.00;;
50309;SDS011;36207;51.850;21.698;2023-06-22T09:56:28;16.70;;;10.90;;
50309;SDS011;36207;51.850;21.698;2023-06-22T09:58:55;12.90;;;10.00;;
50309;SDS011;36207;51.850;21.698;2023-06-22T10:01:21;13.20;;;10.40;;
50309;SDS011;36207;51.850;21.698;2023-06-22T10:03:48;10.90;;;9.10;;
50309;SDS011;36207;51.850;21.698;2023-06-22T10:06:14;13.50;;;9.40;;
50309;SDS011;36207;51.850;21.698;2023-06-22T10:08:40;14.00;;;8.70;;
50309;SDS011;36207;51.850;21.698;2023-06-22T10:11:06;13.10;;;9.20;;
50309;SDS011;36207;51.850;21.698;2023-06-22T10:13:32;9.80;;;8.80;;
50309;SDS011;36207;51.850;21.698;2023-06-22T10:15:58;13.80;;;8.60;;
50309;SDS011;36207;51.850;21.698;2023-06-22T10:18:24;10.50;;;7.80;;
50309;SDS011;36207;51.850;21.698;2023-06-22T10:20:50;12.60;;;7.80;;
50309;SDS011;36207;51.850;21.698;2023-06-22T10:23:20;10.80;;;7.40;;
50309;SDS011;36207;51.850;21.698;2023-06-22T10:25:46;10.00;;;6.60;;
50309;SDS011;36207;51.850;21.698;2023-06-22T10:28:12;8.40;;;6.60;;
50309;SDS011;36207;51.850;21.698;2023-06-22T10:30:41;7.40;;;5.50;;
50309;SDS011;36207;51.850;21.698;2023-06-22T10:33:08;7.00;;;5.30;;
50309;SDS011;36207;51.850;21.698;2023-06-22T10:35:35;7.80;;;5.70;;
50309;SDS011;36207;51.850;21.698;2023-06-22T10:38:03;11.70;;;5.50;;
50309;SDS011;36207;51.850;21.698;2023-06-22T10:40:30;8.10;;;5.30;;
50309;SDS011;36207;51.850;21.698;2023-06-22T10:42:56;7.60;;;5.20;;
50309;SDS011;36207;51.850;21.698;2023-06-22T10:45:23;11.30;;;5.30;;
50309;SDS011;36207;51.850;21.698;2023-06-22T10:47:49;9.90;;;5.20;;
50309;SDS011;36207;51.850;21.698;2023-06-22T10:50:15;7.60;;;4.90;;
50309;SDS011;36207;51.850;21.698;2023-06-22T10:52:41;7.80;;;4.90;;
50309;SDS011;36207;51.850;21.698;2023-06-22T10:55:08;7.80;;;4.90;;
50309;SDS011;36207;51.850;21.698;2023-06-22T10:57:35;9.70;;;5.10;;
50309;SDS011;36207;51.850;21.698;2023-06-22T11:00:02;7.50;;;4.60;;
50309;SDS011;36207;51.850;21.698;2023-06-22T11:02:32;8.60;;;4.90;;
50309;SDS011;36207;51.850;21.698;2023-06-22T11:04:58;5.10;;;4.40;;
50309;SDS011;36207;51.850;21.698;2023-06-22T11:07:26;8.40;;;4.90;;
50309;SDS011;36207;51.850;21.698;2023-06-22T11:09:54;7.80;;;4.60;;
50309;SDS011;36207;51.850;21.698;2023-06-22T11:12:21;8.40;;;4.60;;
50309;SDS011;36207;51.850;21.698;2023-06-22T11:14:47;6.80;;;4.10;;
50309;SDS011;36207;51.850;21.698;2023-06-22T11:17:12;6.20;;;4.70;;
50309;SDS011;36207;51.850;21.698;2023-06-22T11:19:38;12.60;;;4.40;;
50309;SDS011;36207;51.850;21.698;2023-06-22T11:22:04;6.40;;;4.20;;
50309;SDS011;36207;51.850;21.698;2023-06-22T11:24:30;9.90;;;4.20;;
50309;SDS011;36207;51.850;21.698;2023-06-22T11:26:57;7.20;;;3.90;;
50309;SDS011;36207;51.850;21.698;2023-06-22T11:29:22;9.00;;;4.20;;
50309;SDS011;36207;51.850;21.698;2023-06-22T11:31:48;6.90;;;4.20;;
50309;SDS011;36207;51.850;21.698;2023-06-22T11:34:14;8.40;;;4.30;;
50309;SDS011;36207;51.850;21.698;2023-06-22T11:36:41;9.00;;;4.50;;
50309;SDS011;36207;51.850;21.698;2023-06-22T11:39:08;5.70;;;3.90;;
50309;SDS011;36207;51.850;21.698;2023-06-22T11:41:35;5.30;;;4.00;;
50309;SDS011;36207;51.850;21.698;2023-06-22T11:44:01;5.60;;;3.60;;
50309;SDS011;36207;51.850;21.698;2023-06-22T11:46:27;4.50;;;3.60;;
50309;SDS011;36207;51.850;21.698;2023-06-22T11:48:53;7.70;;;3.80;;
50309;SDS011;36207;51.850;21.698;2023-06-22T11:51:19;6.20;;;3.70;;
50309;SDS011;36207;51.850;21.698;2023-06-22T11:53:44;7.00;;;3.90;;
50309;SDS011;36207;51.850;21.698;2023-06-22T11:56:10;4.40;;;3.60;;
50309;SDS011;36207;51.850;21.698;2023-06-22T11:58:36;7.30;;;3.60;;
50309;SDS011;36207;51.850;21.698;2023-06-22T12:01:02;4.80;;;3.60;;
50309;SDS011;36207;51.850;21.698;2023-06-22T12:03:28;4.50;;;3.80;;
50309;SDS011;36207;51.850;21.698;2023-06-22T12:05:55;4.70;;;3.60;;
50309;SDS011;36207;51.850;21.698;2023-06-22T12:08:21;7.00;;;3.60;;
50309;SDS011;36207;51.850;21.698;2023-06-22T12:10:49;5.90;;;3.20;;
50309;SDS011;36207;51.850;21.698;2023-06-22T12:13:15;6.40;;;3.90;;
50309;SDS011;36207;51.850;21.698;2023-06-22T12:15:41;5.00;;;3.50;;
50309;SDS011;36207;51.850;21.698;2023-06-22T12:18:07;4.70;;;3.70;;
50309;SDS011;36207;51.850;21.698;2023-06-22T12:20:34;6.50;;;3.60;;
50309;SDS011;36207;51.850;21.698;2023-06-22T12:23:01;7.40;;;3.70;;
50309;SDS011;36207;51.850;21.698;2023-06-22T12:25:27;8.70;;;3.70;;
50309;SDS011;36207;51.850;21.698;2023-06-22T12:27:53;4.80;;;3.70;;
50309;SDS011;36207;51.850;21.698;2023-06-22T12:30:19;4.90;;;3.70;;
50309;SDS011;36207;51.850;21.698;2023-06-22T12:32:45;4.50;;;3.60;;
50309;SDS011;36207;51.850;21.698;2023-06-22T12:35:11;4.20;;;3.20;;
50309;SDS011;36207;51.850;21.698;2023-06-22T12:37:42;6.80;;;4.10;;
50309;SDS011;36207;51.850;21.698;2023-06-22T12:40:09;4.20;;;3.70;;
50309;SDS011;36207;51.850;21.698;2023-06-22T12:42:35;5.30;;;3.80;;
50309;SDS011;36207;51.850;21.698;2023-06-22T12:45:01;5.40;;;3.80;;
50309;SDS011;36207;51.850;21.698;2023-06-22T12:47:27;7.30;;;4.00;;
50309;SDS011;36207;51.850;21.698;2023-06-22T12:49:53;6.70;;;3.90;;
50309;SDS011;36207;51.850;21.698;2023-06-22T12:52:19;5.70;;;4.10;;
50309;SDS011;36207;51.850;21.698;2023-06-22T12:54:45;5.90;;;4.00;;
50309;SDS011;36207;51.850;21.698;2023-06-22T12:57:11;5.10;;;3.90;;
50309;SDS011;36207;51.850;21.698;2023-06-22T12:59:37;9.80;;;3.80;;
50309;SDS011;36207;51.850;21.698;2023-06-22T13:02:03;6.00;;;4.30;;
50309;SDS011;36207;51.850;21.698;2023-06-22T13:04:29;8.00;;;4.00;;
50309;SDS011;36207;51.850;21.698;2023-06-22T13:06:55;8.10;;;4.40;;
50309;SDS011;36207;51.850;21.698;2023-06-22T13:09:21;8.40;;;4.40;;
50309;SDS011;36207;51.850;21.698;2023-06-22T13:11:47;8.90;;;4.50;;
50309;SDS011;36207;51.850;21.698;2023-06-22T13:14:13;6.60;;;4.50;;
50309;SDS011;36207;51.850;21.698;2023-06-22T13:16:39;5.90;;;4.60;;
50309;SDS011;36207;51.850;21.698;2023-06-22T13:19:04;7.40;;;4.50;;
50309;SDS011;36207;51.850;21.698;2023-06-22T13:21:30;7.90;;;4.30;;
50309;SDS011;36207;51.850;21.698;2023-06-22T13:23:56;5.70;;;4.60;;
50309;SDS011;36207;51.850;21.698;2023-06-22T13:26:22;8.00;;;4.40;;
50309;SDS011;36207;51.850;21.698;2023-06-22T13:28:48;7.60;;;4.70;;
50309;SDS011;36207;51.850;21.698;2023-06-22T13:31:14;5.90;;;4.50;;
50309;SDS011;36207;51.850;21.698;2023-06-22T13:33:40;6.80;;;4.80;;
50309;SDS011;36207;51.850;21.698;2023-06-22T13:36:06;5.40;;;4.40;;
50309;SDS011;36207;51.850;21.698;2023-06-22T13:38:36;7.40;;;4.60;;
50309;SDS011;36207;51.850;21.698;2023-06-22T13:41:04;7.00;;;4.50;;
50309;SDS011;36207;51.850;21.698;2023-06-22T13:43:31;6.10;;;4.50;;
50309;SDS011;36207;51.850;21.698;2023-06-22T13:45:57;6.80;;;4.50;;
50309;SDS011;36207;51.850;21.698;2023-06-22T13:48:24;7.10;;;4.40;;
50309;SDS011;36207;51.850;21.698;2023-06-22T13:50:51;10.10;;;4.90;;
50309;SDS011;36207;51.850;21.698;2023-06-22T13:53:18;8.60;;;4.70;;
50309;SDS011;36207;51.850;21.698;2023-06-22T13:55:44;7.70;;;4.70;;
50309;SDS011;36207;51.850;21.698;2023-06-22T13:58:10;8.40;;;4.80;;
50309;SDS011;36207;51.850;21.698;2023-06-22T14:00:36;6.30;;;4.70;;
50309;SDS011;36207;51.850;21.698;2023-06-22T14:03:02;7.90;;;5.20;;
50309;SDS011;36207;51.850;21.698;2023-06-22T14:05:29;7.80;;;4.80;;
50309;SDS011;36207;51.850;21.698;2023-06-22T14:07:55;7.00;;;4.90;;
50309;SDS011;36207;51.850;21.698;2023-06-22T14:10:20;5.90;;;4.60;;
50309;SDS011;36207;51.850;21.698;2023-06-22T14:12:46;5.80;;;5.00;;
50309;SDS011;36207;51.850;21.698;2023-06-22T14:15:12;7.60;;;4.60;;
50309;SDS011;36207;51.850;21.698;2023-06-22T14:17:38;11.00;;;4.70;;
50309;SDS011;36207;51.850;21.698;2023-06-22T14:20:04;6.80;;;4.40;;
50309;SDS011;36207;51.850;21.698;2023-06-22T14:22:33;7.40;;;4.70;;
50309;SDS011;36207;51.850;21.698;2023-06-22T14:25:01;8.70;;;5.50;;